sensor_id;sensor_type;location;lat;lon;timestamp;P1;durP1;ratioP1;P2;durP2;ratioP2
16892;SDS011;8563;52.242;9.098;2023-06-22T00:00:55;7.10;;;6.50;;
16892;SDS011;8563;52.242;9.098;2023-06-22T00:03:28;6.53;;;6.00;;
16892;SDS011;8563;52.242;9.098;2023-06-22T00:06:00;6.70;;;6.05;;
16892;SDS011;8563;52.242;9.098;2023-06-22T00:08:33;6.80;;;6.30;;
16892;SDS011;8563;52.242;9.098;2023-06-22T00:11:05;9.07;;;6.50;;
16892;SDS011;8563;52.242;9.098;2023-06-22T00:13:39;6.88;;;6.30;;
16892;SDS011;8563;52.242;9.098;2023-06-22T00:16:12;6.57;;;6.07;;
16892;SDS011;8563;52.242;9.098;2023-06-22T00:18:44;6.75;;;6.15;;
16892;SDS011;8563;52.242;9.098;2023-06-22T00:21:19;7.03;;;6.43;;
16892;SDS011;8563;52.242;9.098;2023-06-22T00:23:51;6.53;;;5.93;;
16892;SDS011;8563;52.242;9.098;2023-06-22T00:26:24;6.65;;;6.07;;
16892;SDS011;8563;52.242;9.098;2023-06-22T00:28:57;7.03;;;6.43;;
16892;SDS011;8563;52.242;9.098;2023-06-22T00:31:30;6.53;;;5.97;;
16892;SDS011;8563;52.242;9.098;2023-06-22T00:34:02;7.35;;;6.65;;
16892;SDS011;8563;52.242;9.098;2023-06-22T00:36:39;7.70;;;7.07;;
16892;SDS011;8563;52.242;9.098;2023-06-22T00:39:11;7.18;;;6.40;;
16892;SDS011;8563;52.242;9.098;2023-06-22T00:41:43;6.47;;;5.97;;
16892;SDS011;8563;52.242;9.098;2023-06-22T00:44:17;7.05;;;6.45;;
16892;SDS011;8563;52.242;9.098;2023-06-22T00:46:50;7.43;;;6.72;;
16892;SDS011;8563;52.242;9.098;2023-06-22T00:49:22;7.47;;;6.88;;
16892;SDS011;8563;52.242;9.098;2023-06-22T00:51:55;7.20;;;6.60;;
16892;SDS011;8563;52.242;9.098;2023-06-22T00:54:28;7.63;;;7.03;;
16892;SDS011;8563;52.242;9.098;2023-06-22T00:57:00;8.07;;;7.38;;
16892;SDS011;8563;52.242;9.098;2023-06-22T00:59:34;8.05;;;7.43;;
16892;SDS011;8563;52.242;9.098;2023-06-22T01:02:07;8.05;;;7.35;;
16892;SDS011;8563;52.242;9.098;2023-06-22T01:04:40;7.85;;;7.15;;
16892;SDS011;8563;52.242;9.098;2023-06-22T01:07:16;8.43;;;7.75;;
16892;SDS011;8563;52.242;9.098;2023-06-22T01:09:54;7.47;;;6.78;;
16892;SDS011;8563;52.242;9.098;2023-06-22T01:12:30;7.90;;;6.95;;
16892;SDS011;8563;52.242;9.098;2023-06-22T01:15:08;8.05;;;7.32;;
16892;SDS011;8563;52.242;9.098;2023-06-22T01:17:41;7.75;;;7.15;;
16892;SDS011;8563;52.242;9.098;2023-06-22T01:20:15;7.00;;;6.40;;
16892;SDS011;8563;52.242;9.098;2023-06-22T01:22:51;7.80;;;7.13;;
16892;SDS011;8563;52.242;9.098;2023-06-22T01:25:33;8.15;;;7.45;;
16892;SDS011;8563;52.242;9.098;2023-06-22T01:28:12;8.70;;;8.00;;
16892;SDS011;8563;52.242;9.098;2023-06-22T01:30:51;7.78;;;7.18;;
16892;SDS011;8563;52.242;9.098;2023-06-22T01:33:34;8.77;;;8.07;;
16892;SDS011;8563;52.242;9.098;2023-06-22T01:36:07;8.88;;;8.07;;
16892;SDS011;8563;52.242;9.098;2023-06-22T01:38:40;8.73;;;7.90;;
16892;SDS011;8563;52.242;9.098;2023-06-22T01:41:13;9.30;;;8.50;;
16892;SDS011;8563;52.242;9.098;2023-06-22T01:43:47;8.98;;;7.85;;
16892;SDS011;8563;52.242;9.098;2023-06-22T01:46:21;8.52;;;7.82;;
16892;SDS011;8563;52.242;9.098;2023-06-22T01:48:54;8.32;;;7.40;;
16892;SDS011;8563;52.242;9.098;2023-06-22T01:51:27;8.77;;;8.07;;
16892;SDS011;8563;52.242;9.098;2023-06-22T01:54:00;9.05;;;8.25;;
16892;SDS011;8563;52.242;9.098;2023-06-22T01:56:33;8.73;;;7.93;;
16892;SDS011;8563;52.242;9.098;2023-06-22T01:59:07;8.77;;;7.97;;
16892;SDS011;8563;52.242;9.098;2023-06-22T02:01:44;8.27;;;7.47;;
16892;SDS011;8563;52.242;9.098;2023-06-22T02:04:19;9.10;;;8.30;;
16892;SDS011;8563;52.242;9.098;2023-06-22T02:06:54;9.35;;;8.55;;
16892;SDS011;8563;52.242;9.098;2023-06-22T02:09:29;8.85;;;8.15;;
16892;SDS011;8563;52.242;9.098;2023-06-22T02:12:02;8.50;;;7.80;;
16892;SDS011;8563;52.242;9.098;2023-06-22T02:14:36;9.15;;;8.35;;
16892;SDS011;8563;52.242;9.098;2023-06-22T02:17:10;9.30;;;8.50;;
16892;SDS011;8563;52.242;9.098;2023-06-22T02:19:43;9.45;;;8.63;;
16892;SDS011;8563;52.242;9.098;2023-06-22T02:22:15;9.48;;;8.65;;
16892;SDS011;8563;52.242;9.098;2023-06-22T02:24:48;9.65;;;8.75;;
16892;SDS011;8563;52.242;9.098;2023-06-22T02:27:20;9.10;;;8.40;;
16892;SDS011;8563;52.242;9.098;2023-06-22T02:29:52;9.25;;;8.45;;
16892;SDS011;8563;52.242;9.098;2023-06-22T02:32:26;9.55;;;8.85;;
16892;SDS011;8563;52.242;9.098;2023-06-22T02:34:59;9.52;;;8.73;;
16892;SDS011;8563;52.242;9.098;2023-06-22T02:37:35;9.45;;;8.75;;
16892;SDS011;8563;52.242;9.098;2023-06-22T02:40:09;10.20;;;9.32;;
16892;SDS011;8563;52.242;9.098;2023-06-22T02:42:41;9.77;;;8.98;;
16892;SDS011;8563;52.242;9.098;2023-06-22T02:45:13;9.93;;;9.02;;
16892;SDS011;8563;52.242;9.098;2023-06-22T02:47:49;9.80;;;9.00;;
16892;SDS011;8563;52.242;9.098;2023-06-22T02:50:22;11.35;;;10.38;;
16892;SDS011;8563;52.242;9.098;2023-06-22T02:52:55;9.60;;;8.80;;
16892;SDS011;8563;52.242;9.098;2023-06-22T02:55:28;9.57;;;8.77;;
16892;SDS011;8563;52.242;9.098;2023-06-22T02:58:02;11.15;;;9.35;;
16892;SDS011;8563;52.242;9.098;2023-06-22T03:00:38;10.60;;;9.20;;
16892;SDS011;8563;52.242;9.098;2023-06-22T03:03:11;9.55;;;8.63;;
16892;SDS011;8563;52.242;9.098;2023-06-22T03:05:44;9.70;;;8.55;;
16892;SDS011;8563;52.242;9.098;2023-06-22T03:08:16;10.52;;;9.60;;
16892;SDS011;8563;52.242;9.098;2023-06-22T03:10:49;9.95;;;9.13;;
16892;SDS011;8563;52.242;9.098;2023-06-22T03:13:21;10.18;;;9.10;;
16892;SDS011;8563;52.242;9.098;2023-06-22T03:15:54;9.95;;;9.05;;
16892;SDS011;8563;52.242;9.098;2023-06-22T03:18:28;11.57;;;10.57;;
16892;SDS011;8563;52.242;9.098;2023-06-22T03:21:00;10.25;;;9.45;;
16892;SDS011;8563;52.242;9.098;2023-06-22T03:23:35;10.45;;;9.55;;
16892;SDS011;8563;52.242;9.098;2023-06-22T03:26:08;10.07;;;9.27;;
16892;SDS011;8563;52.242;9.098;2023-06-22T03:28:40;9.73;;;8.93;;
16892;SDS011;8563;52.242;9.098;2023-06-22T03:31:12;10.63;;;9.73;;
16892;SDS011;8563;52.242;9.098;2023-06-22T03:33:46;11.23;;;10.18;;
16892;SDS011;8563;52.242;9.098;2023-06-22T03:36:20;10.18;;;9.27;;
16892;SDS011;8563;52.242;9.098;2023-06-22T03:38:52;10.93;;;9.55;;
16892;SDS011;8563;52.242;9.098;2023-06-22T03:41:25;9.95;;;9.07;;
16892;SDS011;8563;52.242;9.098;2023-06-22T03:43:57;10.15;;;9.20;;
16892;SDS011;8563;52.242;9.098;2023-06-22T03:46:30;9.38;;;8.57;;
16892;SDS011;8563;52.242;9.098;2023-06-22T03:49:03;10.20;;;9.27;;
16892;SDS011;8563;52.242;9.098;2023-06-22T03:51:36;9.80;;;8.77;;
16892;SDS011;8563;52.242;9.098;2023-06-22T03:54:09;10.27;;;9.38;;
16892;SDS011;8563;52.242;9.098;2023-06-22T03:56:42;10.38;;;9.57;;
16892;SDS011;8563;52.242;9.098;2023-06-22T03:59:14;11.10;;;10.20;;
16892;SDS011;8563;52.242;9.098;2023-06-22T04:01:47;12.23;;;11.05;;
16892;SDS011;8563;52.242;9.098;2023-06-22T04:04:21;12.35;;;10.63;;
16892;SDS011;8563;52.242;9.098;2023-06-22T04:06:54;10.93;;;9.93;;
16892;SDS011;8563;52.242;9.098;2023-06-22T04:09:26;11.32;;;10.35;;
16892;SDS011;8563;52.242;9.098;2023-06-22T04:11:58;11.57;;;9.70;;
16892;SDS011;8563;52.242;9.098;2023-06-22T04:14:31;11.00;;;10.10;;
16892;SDS011;8563;52.242;9.098;2023-06-22T04:17:04;11.40;;;10.30;;
16892;SDS011;8563;52.242;9.098;2023-06-22T04:19:38;11.18;;;10.25;;
16892;SDS011;8563;52.242;9.098;2023-06-22T04:22:10;11.10;;;10.02;;
16892;SDS011;8563;52.242;9.098;2023-06-22T04:24:42;11.00;;;9.98;;
16892;SDS011;8563;52.242;9.098;2023-06-22T04:27:15;11.60;;;10.50;;
16892;SDS011;8563;52.242;9.098;2023-06-22T04:29:48;11.15;;;10.23;;
16892;SDS011;8563;52.242;9.098;2023-06-22T04:32:21;11.10;;;10.10;;
16892;SDS011;8563;52.242;9.098;2023-06-22T04:34:55;11.40;;;10.30;;
16892;SDS011;8563;52.242;9.098;2023-06-22T04:37:27;10.60;;;9.57;;
16892;SDS011;8563;52.242;9.098;2023-06-22T04:40:00;10.43;;;9.52;;
16892;SDS011;8563;52.242;9.098;2023-06-22T04:42:34;11.85;;;10.65;;
16892;SDS011;8563;52.242;9.098;2023-06-22T04:45:06;10.90;;;9.90;;
16892;SDS011;8563;52.242;9.098;2023-06-22T04:47:40;10.80;;;9.70;;
16892;SDS011;8563;52.242;9.098;2023-06-22T04:50:14;10.85;;;9.73;;
16892;SDS011;8563;52.242;9.098;2023-06-22T04:52:48;11.23;;;10.10;;
16892;SDS011;8563;52.242;9.098;2023-06-22T04:55:20;11.95;;;10.75;;
16892;SDS011;8563;52.242;9.098;2023-06-22T04:57:52;12.32;;;11.23;;
16892;SDS011;8563;52.242;9.098;2023-06-22T05:00:25;11.52;;;10.57;;
16892;SDS011;8563;52.242;9.098;2023-06-22T05:02:59;10.75;;;9.82;;
16892;SDS011;8563;52.242;9.098;2023-06-22T05:05:35;11.43;;;10.30;;
16892;SDS011;8563;52.242;9.098;2023-06-22T05:08:07;11.38;;;10.43;;
16892;SDS011;8563;52.242;9.098;2023-06-22T05:10:39;12.40;;;11.20;;
16892;SDS011;8563;52.242;9.098;2023-06-22T05:13:12;11.23;;;10.25;;
16892;SDS011;8563;52.242;9.098;2023-06-22T05:15:44;12.02;;;11.02;;
16892;SDS011;8563;52.242;9.098;2023-06-22T05:18:18;11.55;;;10.43;;
16892;SDS011;8563;52.242;9.098;2023-06-22T05:20:55;11.80;;;10.80;;
16892;SDS011;8563;52.242;9.098;2023-06-22T05:23:28;12.30;;;11.10;;
16892;SDS011;8563;52.242;9.098;2023-06-22T05:26:00;12.10;;;11.05;;
16892;SDS011;8563;52.242;9.098;2023-06-22T05:28:33;11.50;;;10.60;;
16892;SDS011;8563;52.242;9.098;2023-06-22T05:31:05;12.00;;;10.90;;
16892;SDS011;8563;52.242;9.098;2023-06-22T05:33:38;12.57;;;11.35;;
16892;SDS011;8563;52.242;9.098;2023-06-22T05:36:12;12.63;;;11.60;;
16892;SDS011;8563;52.242;9.098;2023-06-22T05:38:44;12.40;;;11.35;;
16892;SDS011;8563;52.242;9.098;2023-06-22T05:41:16;12.45;;;11.20;;
16892;SDS011;8563;52.242;9.098;2023-06-22T05:43:49;11.68;;;10.45;;
16892;SDS011;8563;52.242;9.098;2023-06-22T05:46:21;11.68;;;10.45;;
16892;SDS011;8563;52.242;9.098;2023-06-22T05:48:54;12.13;;;10.98;;
16892;SDS011;8563;52.242;9.098;2023-06-22T05:51:27;12.48;;;11.48;;
16892;SDS011;8563;52.242;9.098;2023-06-22T05:54:00;14.60;;;13.07;;
16892;SDS011;8563;52.242;9.098;2023-06-22T05:56:32;13.70;;;12.48;;
16892;SDS011;8563;52.242;9.098;2023-06-22T05:59:05;12.68;;;11.48;;
16892;SDS011;8563;52.242;9.098;2023-06-22T06:01:37;12.82;;;11.52;;
16892;SDS011;8563;52.242;9.098;2023-06-22T06:04:10;13.90;;;12.60;;
16892;SDS011;8563;52.242;9.098;2023-06-22T06:06:44;14.20;;;12.63;;
16892;SDS011;8563;52.242;9.098;2023-06-22T06:09:17;13.95;;;12.60;;
16892;SDS011;8563;52.242;9.098;2023-06-22T06:11:50;13.18;;;11.98;;
16892;SDS011;8563;52.242;9.098;2023-06-22T06:14:22;13.55;;;12.35;;
16892;SDS011;8563;52.242;9.098;2023-06-22T06:16:54;12.25;;;11.20;;
16892;SDS011;8563;52.242;9.098;2023-06-22T06:19:27;12.98;;;11.93;;
16892;SDS011;8563;52.242;9.098;2023-06-22T06:22:01;13.82;;;12.60;;
16892;SDS011;8563;52.242;9.098;2023-06-22T06:24:33;12.70;;;11.60;;
16892;SDS011;8563;52.242;9.098;2023-06-22T06:27:06;13.07;;;11.13;;
16892;SDS011;8563;52.242;9.098;2023-06-22T06:29:38;13.55;;;12.30;;
16892;SDS011;8563;52.242;9.098;2023-06-22T06:32:11;11.95;;;10.50;;
16892;SDS011;8563;52.242;9.098;2023-06-22T06:34:44;12.27;;;11.27;;
16892;SDS011;8563;52.242;9.098;2023-06-22T06:37:17;12.50;;;11.35;;
16892;SDS011;8563;52.242;9.098;2023-06-22T06:39:50;13.55;;;12.35;;
16892;SDS011;8563;52.242;9.098;2023-06-22T06:42:22;12.93;;;11.73;;
16892;SDS011;8563;52.242;9.098;2023-06-22T06:44:55;11.60;;;10.50;;
16892;SDS011;8563;52.242;9.098;2023-06-22T06:47:28;13.65;;;12.45;;
16892;SDS011;8563;52.242;9.098;2023-06-22T06:50:00;13.20;;;12.10;;
16892;SDS011;8563;52.242;9.098;2023-06-22T06:52:34;14.32;;;12.88;;
16892;SDS011;8563;52.242;9.098;2023-06-22T06:55:07;14.02;;;12.82;;
16892;SDS011;8563;52.242;9.098;2023-06-22T06:57:42;13.75;;;12.65;;
16892;SDS011;8563;52.242;9.098;2023-06-22T07:00:18;12.30;;;11.40;;
16892;SDS011;8563;52.242;9.098;2023-06-22T07:02:51;13.48;;;12.45;;
16892;SDS011;8563;52.242;9.098;2023-06-22T07:05:24;11.75;;;10.75;;
16892;SDS011;8563;52.242;9.098;2023-06-22T07:07:58;12.63;;;11.60;;
16892;SDS011;8563;52.242;9.098;2023-06-22T07:10:30;15.63;;;14.27;;
16892;SDS011;8563;52.242;9.098;2023-06-22T07:13:03;15.52;;;14.13;;
16892;SDS011;8563;52.242;9.098;2023-06-22T07:15:35;13.50;;;12.35;;
16892;SDS011;8563;52.242;9.098;2023-06-22T07:18:08;13.00;;;11.80;;
16892;SDS011;8563;52.242;9.098;2023-06-22T07:20:40;15.35;;;13.95;;
16892;SDS011;8563;52.242;9.098;2023-06-22T07:23:14;16.73;;;15.13;;
16892;SDS011;8563;52.242;9.098;2023-06-22T07:25:47;13.00;;;11.93;;
16892;SDS011;8563;52.242;9.098;2023-06-22T07:28:20;15.38;;;13.80;;
16892;SDS011;8563;52.242;9.098;2023-06-22T07:30:53;15.73;;;13.88;;
16892;SDS011;8563;52.242;9.098;2023-06-22T07:33:25;14.40;;;13.10;;
16892;SDS011;8563;52.242;9.098;2023-06-22T07:35:58;14.77;;;13.48;;
16892;SDS011;8563;52.242;9.098;2023-06-22T07:38:31;15.02;;;13.63;;
16892;SDS011;8563;52.242;9.098;2023-06-22T07:41:04;14.05;;;12.73;;
16892;SDS011;8563;52.242;9.098;2023-06-22T07:43:36;13.07;;;11.98;;
16892;SDS011;8563;52.242;9.098;2023-06-22T07:46:09;15.18;;;13.85;;
16892;SDS011;8563;52.242;9.098;2023-06-22T07:48:41;15.32;;;13.90;;
16892;SDS011;8563;52.242;9.098;2023-06-22T07:51:14;14.55;;;13.45;;
16892;SDS011;8563;52.242;9.098;2023-06-22T07:53:48;16.17;;;14.60;;
16892;SDS011;8563;52.242;9.098;2023-06-22T07:56:21;16.92;;;15.50;;
16892;SDS011;8563;52.242;9.098;2023-06-22T07:58:53;17.33;;;14.93;;
16892;SDS011;8563;52.242;9.098;2023-06-22T08:01:28;17.25;;;15.68;;
16892;SDS011;8563;52.242;9.098;2023-06-22T08:04:00;16.38;;;14.80;;
16892;SDS011;8563;52.242;9.098;2023-06-22T08:06:33;17.08;;;15.38;;
16892;SDS011;8563;52.242;9.098;2023-06-22T08:09:06;16.90;;;15.35;;
16892;SDS011;8563;52.242;9.098;2023-06-22T08:11:39;15.95;;;14.55;;
16892;SDS011;8563;52.242;9.098;2023-06-22T08:14:11;14.32;;;13.02;;
16892;SDS011;8563;52.242;9.098;2023-06-22T08:16:44;13.80;;;12.45;;
16892;SDS011;8563;52.242;9.098;2023-06-22T08:19:16;15.82;;;14.30;;
16892;SDS011;8563;52.242;9.098;2023-06-22T08:21:49;17.55;;;15.93;;
16892;SDS011;8563;52.242;9.098;2023-06-22T08:24:23;18.25;;;16.38;;
16892;SDS011;8563;52.242;9.098;2023-06-22T08:26:55;17.00;;;15.45;;
16892;SDS011;8563;52.242;9.098;2023-06-22T08:29:28;15.90;;;14.50;;
16892;SDS011;8563;52.242;9.098;2023-06-22T08:32:00;18.15;;;16.55;;
16892;SDS011;8563;52.242;9.098;2023-06-22T08:34:33;17.67;;;16.08;;
16892;SDS011;8563;52.242;9.098;2023-06-22T08:37:05;17.27;;;15.88;;
16892;SDS011;8563;52.242;9.098;2023-06-22T08:39:40;19.05;;;17.40;;
16892;SDS011;8563;52.242;9.098;2023-06-22T08:42:12;19.67;;;17.80;;
16892;SDS011;8563;52.242;9.098;2023-06-22T08:44:44;17.20;;;15.52;;
16892;SDS011;8563;52.242;9.098;2023-06-22T08:47:17;17.15;;;15.65;;
16892;SDS011;8563;52.242;9.098;2023-06-22T08:49:50;17.42;;;15.93;;
16892;SDS011;8563;52.242;9.098;2023-06-22T08:52:22;15.88;;;14.48;;
16892;SDS011;8563;52.242;9.098;2023-06-22T08:54:56;17.38;;;15.82;;
16892;SDS011;8563;52.242;9.098;2023-06-22T08:57:29;14.77;;;13.48;;
16892;SDS011;8563;52.242;9.098;2023-06-22T09:00:03;19.25;;;16.13;;
16892;SDS011;8563;52.242;9.098;2023-06-22T09:02:41;19.00;;;17.05;;
16892;SDS011;8563;52.242;9.098;2023-06-22T09:05:14;19.48;;;17.75;;
16892;SDS011;8563;52.242;9.098;2023-06-22T09:07:46;18.35;;;16.52;;
16892;SDS011;8563;52.242;9.098;2023-06-22T09:10:20;16.58;;;15.18;;
16892;SDS011;8563;52.242;9.098;2023-06-22T09:12:53;19.42;;;17.77;;
16892;SDS011;8563;52.242;9.098;2023-06-22T09:15:25;18.73;;;16.92;;
16892;SDS011;8563;52.242;9.098;2023-06-22T09:17:58;18.25;;;16.40;;
16892;SDS011;8563;52.242;9.098;2023-06-22T09:20:31;17.33;;;15.75;;
16892;SDS011;8563;52.242;9.098;2023-06-22T09:23:04;15.30;;;14.00;;
16892;SDS011;8563;52.242;9.098;2023-06-22T09:25:38;17.10;;;15.57;;
16892;SDS011;8563;52.242;9.098;2023-06-22T09:28:11;16.52;;;14.88;;
16892;SDS011;8563;52.242;9.098;2023-06-22T09:30:44;19.00;;;17.27;;
16892;SDS011;8563;52.242;9.098;2023-06-22T09:33:17;19.95;;;18.30;;
16892;SDS011;8563;52.242;9.098;2023-06-22T09:35:50;17.92;;;16.33;;
16892;SDS011;8563;52.242;9.098;2023-06-22T09:38:22;19.15;;;17.17;;
16892;SDS011;8563;52.242;9.098;2023-06-22T09:40:56;17.90;;;16.40;;
16892;SDS011;8563;52.242;9.098;2023-06-22T09:43:30;18.08;;;16.48;;
16892;SDS011;8563;52.242;9.098;2023-06-22T09:46:05;17.67;;;15.98;;
16892;SDS011;8563;52.242;9.098;2023-06-22T09:48:39;18.67;;;17.10;;
16892;SDS011;8563;52.242;9.098;2023-06-22T09:51:12;21.05;;;19.00;;
16892;SDS011;8563;52.242;9.098;2023-06-22T09:53:44;18.98;;;17.17;;
16892;SDS011;8563;52.242;9.098;2023-06-22T09:56:18;19.90;;;18.20;;
16892;SDS011;8563;52.242;9.098;2023-06-22T09:58:51;19.65;;;18.00;;
16892;SDS011;8563;52.242;9.098;2023-06-22T10:01:23;19.05;;;17.35;;
16892;SDS011;8563;52.242;9.098;2023-06-22T10:03:56;18.13;;;16.42;;
16892;SDS011;8563;52.242;9.098;2023-06-22T10:06:28;18.00;;;16.38;;
16892;SDS011;8563;52.242;9.098;2023-06-22T10:09:01;17.10;;;15.35;;
16892;SDS011;8563;52.242;9.098;2023-06-22T10:11:35;18.30;;;16.63;;
16892;SDS011;8563;52.242;9.098;2023-06-22T10:14:08;15.57;;;14.18;;
16892;SDS011;8563;52.242;9.098;2023-06-22T10:16:40;17.02;;;15.60;;
16892;SDS011;8563;52.242;9.098;2023-06-22T10:19:12;15.15;;;13.82;;
16892;SDS011;8563;52.242;9.098;2023-06-22T10:21:45;14.38;;;13.10;;
16892;SDS011;8563;52.242;9.098;2023-06-22T10:24:17;15.05;;;13.55;;
16892;SDS011;8563;52.242;9.098;2023-06-22T10:26:51;12.95;;;11.95;;
16892;SDS011;8563;52.242;9.098;2023-06-22T10:29:24;15.30;;;13.77;;
16892;SDS011;8563;52.242;9.098;2023-06-22T10:31:56;14.30;;;12.88;;
16892;SDS011;8563;52.242;9.098;2023-06-22T10:34:29;15.50;;;14.10;;
16892;SDS011;8563;52.242;9.098;2023-06-22T10:37:02;15.40;;;14.07;;
16892;SDS011;8563;52.242;9.098;2023-06-22T10:39:34;16.23;;;14.90;;
16892;SDS011;8563;52.242;9.098;2023-06-22T10:42:08;14.77;;;13.60;;
16892;SDS011;8563;52.242;9.098;2023-06-22T10:44:41;16.20;;;14.50;;
16892;SDS011;8563;52.242;9.098;2023-06-22T10:47:14;14.52;;;13.23;;
16892;SDS011;8563;52.242;9.098;2023-06-22T10:49:47;13.65;;;12.45;;
16892;SDS011;8563;52.242;9.098;2023-06-22T10:52:19;12.38;;;11.30;;
16892;SDS011;8563;52.242;9.098;2023-06-22T10:54:51;14.05;;;12.75;;
16892;SDS011;8563;52.242;9.098;2023-06-22T10:57:25;13.57;;;12.45;;
16892;SDS011;8563;52.242;9.098;2023-06-22T10:59:58;14.07;;;12.63;;
16892;SDS011;8563;52.242;9.098;2023-06-22T11:02:31;11.20;;;10.30;;
16892;SDS011;8563;52.242;9.098;2023-06-22T11:05:03;11.60;;;9.25;;
16892;SDS011;8563;52.242;9.098;2023-06-22T11:07:36;12.43;;;9.93;;
16892;SDS011;8563;52.242;9.098;2023-06-22T11:10:11;11.93;;;10.73;;
16892;SDS011;8563;52.242;9.098;2023-06-22T11:12:45;10.63;;;9.55;;
16892;SDS011;8563;52.242;9.098;2023-06-22T11:15:18;8.95;;;8.25;;
16892;SDS011;8563;52.242;9.098;2023-06-22T11:17:50;7.57;;;6.97;;
16892;SDS011;8563;52.242;9.098;2023-06-22T11:20:23;6.97;;;6.47;;
16892;SDS011;8563;52.242;9.098;2023-06-22T11:22:56;7.15;;;6.45;;
16892;SDS011;8563;52.242;9.098;2023-06-22T11:25:28;6.85;;;6.25;;
16892;SDS011;8563;52.242;9.098;2023-06-22T11:28:03;7.18;;;6.57;;
16892;SDS011;8563;52.242;9.098;2023-06-22T11:30:35;6.60;;;6.10;;
16892;SDS011;8563;52.242;9.098;2023-06-22T11:33:08;9.48;;;6.35;;
16892;SDS011;8563;52.242;9.098;2023-06-22T11:35:41;7.18;;;6.57;;
16892;SDS011;8563;52.242;9.098;2023-06-22T11:38:13;7.93;;;7.22;;
16892;SDS011;8563;52.242;9.098;2023-06-22T11:40:45;8.63;;;7.93;;
16892;SDS011;8563;52.242;9.098;2023-06-22T11:43:19;10.75;;;9.85;;
16892;SDS011;8563;52.242;9.098;2023-06-22T11:45:52;9.90;;;9.00;;
16892;SDS011;8563;52.242;9.098;2023-06-22T11:48:26;9.60;;;8.88;;
16892;SDS011;8563;52.242;9.098;2023-06-22T11:50:58;9.95;;;8.95;;
16892;SDS011;8563;52.242;9.098;2023-06-22T11:53:33;8.98;;;8.27;;
16892;SDS011;8563;52.242;9.098;2023-06-22T11:56:05;9.70;;;8.85;;
16892;SDS011;8563;52.242;9.098;2023-06-22T11:58:39;10.43;;;9.30;;
16892;SDS011;8563;52.242;9.098;2023-06-22T12:01:12;9.05;;;8.35;;
16892;SDS011;8563;52.242;9.098;2023-06-22T12:03:45;8.38;;;7.50;;
16892;SDS011;8563;52.242;9.098;2023-06-22T12:06:18;7.15;;;6.38;;
16892;SDS011;8563;52.242;9.098;2023-06-22T12:08:50;6.43;;;5.82;;
16892;SDS011;8563;52.242;9.098;2023-06-22T12:11:23;9.15;;;8.25;;
16892;SDS011;8563;52.242;9.098;2023-06-22T12:13:57;9.05;;;8.25;;
16892;SDS011;8563;52.242;9.098;2023-06-22T12:16:32;7.78;;;6.93;;
16892;SDS011;8563;52.242;9.098;2023-06-22T12:19:04;8.70;;;8.00;;
16892;SDS011;8563;52.242;9.098;2023-06-22T12:21:36;8.43;;;7.72;;
16892;SDS011;8563;52.242;9.098;2023-06-22T12:24:09;9.00;;;8.13;;
16892;SDS011;8563;52.242;9.098;2023-06-22T12:26:41;8.13;;;6.85;;
16892;SDS011;8563;52.242;9.098;2023-06-22T12:29:16;8.60;;;7.32;;
16892;SDS011;8563;52.242;9.098;2023-06-22T12:31:48;7.95;;;7.30;;
16892;SDS011;8563;52.242;9.098;2023-06-22T12:34:20;9.23;;;7.93;;
16892;SDS011;8563;52.242;9.098;2023-06-22T12:36:53;8.10;;;7.40;;
16892;SDS011;8563;52.242;9.098;2023-06-22T12:39:26;8.70;;;7.85;;
16892;SDS011;8563;52.242;9.098;2023-06-22T12:41:58;8.52;;;7.70;;
16892;SDS011;8563;52.242;9.098;2023-06-22T12:44:32;8.60;;;7.90;;
16892;SDS011;8563;52.242;9.098;2023-06-22T12:47:05;7.50;;;6.80;;
16892;SDS011;8563;52.242;9.098;2023-06-22T12:49:38;7.57;;;6.88;;
16892;SDS011;8563;52.242;9.098;2023-06-22T12:52:11;7.38;;;6.78;;
16892;SDS011;8563;52.242;9.098;2023-06-22T12:54:43;8.18;;;7.30;;
16892;SDS011;8563;52.242;9.098;2023-06-22T12:57:16;8.02;;;7.35;;
16892;SDS011;8563;52.242;9.098;2023-06-22T12:59:51;8.48;;;7.78;;
16892;SDS011;8563;52.242;9.098;2023-06-22T13:02:23;7.80;;;7.15;;
16892;SDS011;8563;52.242;9.098;2023-06-22T13:04:56;8.43;;;7.63;;
16892;SDS011;8563;52.242;9.098;2023-06-22T13:07:29;8.68;;;7.95;;
16892;SDS011;8563;52.242;9.098;2023-06-22T13:10:01;8.48;;;7.65;;
16892;SDS011;8563;52.242;9.098;2023-06-22T13:12:34;8.60;;;7.00;;
16892;SDS011;8563;52.242;9.098;2023-06-22T13:15:09;8.38;;;7.72;;
16892;SDS011;8563;52.242;9.098;2023-06-22T13:17:41;9.32;;;8.52;;
16892;SDS011;8563;52.242;9.098;2023-06-22T13:20:14;9.68;;;8.77;;
16892;SDS011;8563;52.242;9.098;2023-06-22T13:22:46;9.80;;;8.70;;
16892;SDS011;8563;52.242;9.098;2023-06-22T13:25:19;9.52;;;8.65;;
16892;SDS011;8563;52.242;9.098;2023-06-22T13:27:54;10.32;;;9.35;;
16892;SDS011;8563;52.242;9.098;2023-06-22T13:30:28;9.93;;;8.82;;
16892;SDS011;8563;52.242;9.098;2023-06-22T13:33:01;10.48;;;9.55;;
16892;SDS011;8563;52.242;9.098;2023-06-22T13:35:33;10.35;;;9.35;;
16892;SDS011;8563;52.242;9.098;2023-06-22T13:38:06;10.27;;;9.38;;
16892;SDS011;8563;52.242;9.098;2023-06-22T13:40:39;10.35;;;9.55;;
16892;SDS011;8563;52.242;9.098;2023-06-22T13:43:11;11.02;;;10.05;;
16892;SDS011;8563;52.242;9.098;2023-06-22T13:45:45;11.35;;;10.45;;
16892;SDS011;8563;52.242;9.098;2023-06-22T13:48:18;11.95;;;10.77;;
16892;SDS011;8563;52.242;9.098;2023-06-22T13:50:50;12.95;;;11.73;;
16892;SDS011;8563;52.242;9.098;2023-06-22T13:53:24;13.82;;;12.40;;
16892;SDS011;8563;52.242;9.098;2023-06-22T13:55:57;12.90;;;11.80;;
16892;SDS011;8563;52.242;9.098;2023-06-22T13:58:29;14.25;;;12.95;;
16892;SDS011;8563;52.242;9.098;2023-06-22T14:01:04;15.30;;;13.02;;
16892;SDS011;8563;52.242;9.098;2023-06-22T14:03:36;14.48;;;13.07;;
16892;SDS011;8563;52.242;9.098;2023-06-22T14:06:08;14.70;;;13.38;;
16892;SDS011;8563;52.242;9.098;2023-06-22T14:08:41;15.00;;;13.70;;
16892;SDS011;8563;52.242;9.098;2023-06-22T14:11:14;15.57;;;13.95;;
16892;SDS011;8563;52.242;9.098;2023-06-22T14:13:46;15.82;;;14.52;;
16892;SDS011;8563;52.242;9.098;2023-06-22T14:16:20;17.27;;;15.48;;
16892;SDS011;8563;52.242;9.098;2023-06-22T14:18:53;16.10;;;14.57;;
16892;SDS011;8563;52.242;9.098;2023-06-22T14:21:25;17.30;;;15.50;;
16892;SDS011;8563;52.242;9.098;2023-06-22T14:23:57;18.75;;;17.00;;
16892;SDS011;8563;52.242;9.098;2023-06-22T14:26:30;18.75;;;17.00;;
16892;SDS011;8563;52.242;9.098;2023-06-22T14:29:02;19.23;;;17.40;;
16892;SDS011;8563;52.242;9.098;2023-06-22T14:31:37;19.23;;;17.52;;
16892;SDS011;8563;52.242;9.098;2023-06-22T14:34:09;21.27;;;19.25;;
16892;SDS011;8563;52.242;9.098;2023-06-22T14:36:42;24.77;;;22.48;;
16892;SDS011;8563;52.242;9.098;2023-06-22T14:39:14;23.45;;;20.92;;
16892;SDS011;8563;52.242;9.098;2023-06-22T14:41:47;21.23;;;19.27;;
16892;SDS011;8563;52.242;9.098;2023-06-22T14:44:19;21.92;;;19.98;;
16892;SDS011;8563;52.242;9.098;2023-06-22T14:46:54;21.80;;;19.90;;
16892;SDS011;8563;52.242;9.098;2023-06-22T14:49:26;22.38;;;20.17;;
16892;SDS011;8563;52.242;9.098;2023-06-22T14:51:58;24.98;;;22.15;;
16892;SDS011;8563;52.242;9.098;2023-06-22T14:54:31;24.98;;;22.65;;
16892;SDS011;8563;52.242;9.098;2023-06-22T14:57:04;30.55;;;27.35;;
16892;SDS011;8563;52.242;9.098;2023-06-22T14:59:36;28.52;;;25.70;;
16892;SDS011;8563;52.242;9.098;2023-06-22T15:02:10;35.67;;;29.00;;
16892;SDS011;8563;52.242;9.098;2023-06-22T15:04:42;34.60;;;30.92;;
16892;SDS011;8563;52.242;9.098;2023-06-22T15:07:15;31.92;;;27.80;;
16892;SDS011;8563;52.242;9.098;2023-06-22T15:09:48;39.25;;;35.08;;
16892;SDS011;8563;52.242;9.098;2023-06-22T15:12:20;45.15;;;39.20;;
16892;SDS011;8563;52.242;9.098;2023-06-22T15:14:53;47.55;;;41.40;;
16892;SDS011;8563;52.242;9.098;2023-06-22T15:17:27;48.67;;;40.50;;
16892;SDS011;8563;52.242;9.098;2023-06-22T15:20:02;54.00;;;41.80;;